Terminal Aerodrome Forecast
Issued by NWS Sioux Falls, SD

Home | Current Version | Previous Version | Text Only | Print | Product List | Glossary On
Versions: 1 2 3 4 5 6 7 8 9 10 11 12 13
000
FTUS43 KFSD 050520
TAFFSD
TAF
KFSD 050520Z 0506/0606 10008KT P6SM SCT090 BKN250
     FM051300 11012KT P6SM OVC050
     FM052000 15013G19KT P6SM OVC040=

USA.gov is the U.S. government's official web portal to all federal, state and local government web resources and services.